NORTHEAST SUFFOLK  -  Coastal Flood Statement Coastal Flood Statement     Rip Current Statement Rip Current Statement     Rip Current Statement Rip Current Statement        NORTHWEST SUFFOLK  -  Coastal Flood Statement Coastal Flood Statement     Rip Current Statement Rip Current Statement     Rip Current Statement Rip Current Statement        SOUTHEAST SUFFOLK  -  Coastal Flood Statement Coastal Flood Statement     Rip Current Statement Rip Current Statement     Rip Current Statement Rip Current Statement        SOUTHWEST SUFFOLK  -  Coastal Flood Statement Coastal Flood Statement     Rip Current Statement Rip Current Statement     Rip Current Statement Rip Current Statement        NORTHERN NASSAU  -  Rip Current Statement Rip Current Statement        NORTHERN QUEENS  -  Rip Current Statement Rip Current Statement        SOUTHERN NASSAU  -  Rip Current Statement Rip Current Statement        SOUTHERN QUEENS  -  Rip Current Statement Rip Current Statement      

Active alerts

Northwest Suffolk
  Details for Northwest Suffolk Coastal Flood Statement  +2 additional alerts
Southwest Suffolk
  Details for Southwest Suffolk Coastal Flood Statement  +2 additional alerts
Northeast Suffolk
  Details for Northeast Suffolk Coastal Flood Statement  +2 additional alerts
Southeast Suffolk
  Details for Southeast Suffolk Coastal Flood Statement  +2 additional alerts
Northern Queens
  Details for Northern Queens Rip Current Statement
Southern Queens
  Details for Southern Queens Rip Current Statement
Northern Nassau
  Details for Northern Nassau Rip Current Statement
Southern Nassau
  Details for Southern Nassau Rip Current Statement


WXM80 ListenWXM80 Stop

You find our weather info also at:

UK Metoffice

WeatherCloud

Weather Underground

Northeastern Weather Network

AWEKAS

Citizen Weather Observer Program (CWOP)

HAMweather, WeatherForYou, PWS Weather


Weather Underground History page Text

Daily Summary for February 19, 2018 Units:  English    Metric   Both
« Previous Day
Next Day »
Daily Weekly Monthly Yearly Custom
  High: Low: Average:
Temperature: 52.6 °F 30.4 °F 43.2 °F
Dew Point: 49.7 °F 26.2 °F 38.7 °F
Humidity: 97 % 66 % 84 %
Wind Speed: 10.7 mph 0.0 mph 2.9 mph
Wind Gust: 16.1 mph - -
Wind:- - South
Pressure: 30.29 in 30.05 in -
Precipitation: 0.00 in    
Historical Graphs
 
 
Tabular Data for February 19, 2018
Time Temperature Dew Point Pressure Wind Wind Speed Wind Gust Humidity Rainfall Rate (Hourly)
00:00 30.4 °F 27.5 °F 30.28 in East 1.2 mph 2.3 mph 89 % 0.00 in
00:05 30.5 °F 27.6 °F 30.27 in East 1.0 mph 2.3 mph 89 % 0.00 in
00:06 30.5 °F 27.6 °F 30.27 in East 1.9 mph 3.5 mph 89 % 0.00 in
00:11 30.8 °F 27.9 °F 30.28 in East 2.2 mph 3.5 mph 89 % 0.00 in
00:16 31.0 °F 27.9 °F 30.27 in ESE 1.3 mph 3.5 mph 88 % 0.00 in
00:21 31.3 °F 28.2 °F 30.28 in East 0.2 mph 1.2 mph 88 % 0.00 in
00:27 31.4 °F 28.0 °F 30.28 in East 0.2 mph 1.2 mph 87 % 0.00 in
00:32 31.6 °F 28.2 °F 30.28 in SE 1.3 mph 4.6 mph 87 % 0.00 in
00:37 31.7 °F 28.0 °F 30.28 in SE 2.3 mph 3.5 mph 86 % 0.00 in
00:42 31.9 °F 27.9 °F 30.28 in SSE 2.3 mph 4.6 mph 85 % 0.00 in
00:47 32.1 °F 27.8 °F 30.28 in ESE 0.3 mph 2.3 mph 84 % 0.00 in
00:52 32.3 °F 27.7 °F 30.28 in SE 2.7 mph 5.8 mph 83 % 0.00 in
00:57 32.4 °F 27.5 °F 30.28 in SE 1.2 mph 3.5 mph 82 % 0.00 in
01:02 32.5 °F 27.3 °F 30.28 in SSE 3.1 mph 3.5 mph 81 % 0.00 in
01:07 32.6 °F 27.4 °F 30.27 in SE 2.3 mph 3.5 mph 81 % 0.00 in
01:12 32.8 °F 27.3 °F 30.28 in SE 2.1 mph 4.6 mph 80 % 0.00 in
01:17 32.9 °F 27.1 °F 30.27 in SE 2.9 mph 3.5 mph 79 % 0.00 in
01:22 32.9 °F 26.8 °F 30.27 in SSE 2.8 mph 4.6 mph 78 % 0.00 in
01:27 33.0 °F 26.9 °F 30.28 in SE 2.2 mph 3.5 mph 78 % 0.00 in
01:32 33.1 °F 27.0 °F 30.28 in SE 2.4 mph 3.5 mph 78 % 0.00 in
01:37 33.2 °F 26.8 °F 30.27 in SE 1.9 mph 3.5 mph 77 % 0.00 in
01:42 33.2 °F 26.8 °F 30.27 in SSE 0.3 mph 2.3 mph 77 % 0.00 in
01:47 33.2 °F 26.8 °F 30.27 in SE 1.9 mph 3.5 mph 77 % 0.00 in
01:57 33.1 °F 26.7 °F 30.27 in SSE 1.0 mph 2.3 mph 77 % 0.00 in
02:02 33.2 °F 26.8 °F 30.27 in SSE 2.9 mph 3.5 mph 77 % 0.00 in
02:07 33.1 °F 26.7 °F 30.27 in ESE 2.1 mph 3.5 mph 77 % 0.00 in
02:12 33.1 °F 26.7 °F 30.27 in SE 3.1 mph 5.0 mph 77 % 0.00 in
02:18 33.1 °F 26.7 °F 30.27 in SSE 1.0 mph 3.5 mph 77 % 0.00 in
02:23 33.1 °F 26.7 °F 30.27 in SE 1.6 mph 3.5 mph 77 % 0.00 in
02:28 33.1 °F 26.4 °F 30.27 in SE 3.1 mph 3.5 mph 76 % 0.00 in
02:33 33.1 °F 26.4 °F 30.27 in SSE 3.4 mph 5.8 mph 76 % 0.00 in
02:38 33.2 °F 26.5 °F 30.27 in SSE 4.1 mph 6.0 mph 76 % 0.00 in
02:43 33.3 °F 26.2 °F 30.28 in SSE 2.2 mph 3.5 mph 75 % 0.00 in
02:48 33.3 °F 26.5 °F 30.27 in SSE 2.5 mph 5.8 mph 76 % 0.00 in
02:53 33.3 °F 26.2 °F 30.28 in SE 2.8 mph 4.6 mph 75 % 0.00 in
02:58 33.4 °F 26.3 °F 30.27 in SSE 3.6 mph 5.0 mph 75 % 0.00 in
03:03 33.4 °F 26.3 °F 30.28 in SE 3.4 mph 4.6 mph 75 % 0.00 in
03:08 33.4 °F 26.3 °F 30.28 in SE 2.4 mph 6.0 mph 75 % 0.00 in
03:13 33.4 °F 26.3 °F 30.28 in SSE 3.2 mph 4.0 mph 75 % 0.00 in
03:18 33.5 °F 26.4 °F 30.27 in SSE 4.6 mph 8.1 mph 75 % 0.00 in
03:23 33.7 °F 26.6 °F 30.27 in SE 2.4 mph 8.1 mph 75 % 0.00 in
03:28 33.9 °F 26.8 °F 30.27 in SSE 3.5 mph 5.8 mph 75 % 0.00 in
03:33 34.0 °F 26.9 °F 30.27 in SSE 2.9 mph 4.6 mph 75 % 0.00 in
03:38 34.0 °F 26.9 °F 30.27 in SSE 0.9 mph 3.5 mph 75 % 0.00 in
03:43 34.0 °F 26.9 °F 30.27 in SSE 2.3 mph 3.5 mph 75 % 0.00 in
03:48 34.0 °F 27.2 °F 30.27 in SSE 1.4 mph 3.5 mph 76 % 0.00 in
03:53 34.0 °F 27.2 °F 30.27 in SSE 3.6 mph 4.6 mph 76 % 0.00 in
03:59 34.0 °F 27.5 °F 30.27 in SSE 2.3 mph 4.6 mph 77 % 0.00 in
04:04 34.1 °F 27.6 °F 30.27 in SSE 2.7 mph 4.6 mph 77 % 0.00 in
04:09 34.1 °F 27.6 °F 30.27 in SSE 2.2 mph 3.5 mph 77 % 0.00 in
04:14 34.1 °F 28.0 °F 30.27 in Calm   3.5 mph 78 % 0.00 in
04:19 34.1 °F 28.0 °F 30.27 in SSE 1.0 mph 2.3 mph 78 % 0.00 in
04:24 34.1 °F 28.3 °F 30.27 in SSE 0.7 mph 2.3 mph 79 % 0.00 in
04:29 34.1 °F 28.3 °F 30.27 in SSE 1.9 mph 3.5 mph 79 % 0.00 in
04:34 34.1 °F 28.6 °F 30.27 in SSE 1.2 mph 3.5 mph 80 % 0.00 in
04:39 34.1 °F 28.6 °F 30.27 in SSE 2.5 mph 3.5 mph 80 % 0.00 in
04:44 34.1 °F 28.9 °F 30.27 in SSE 2.1 mph 2.3 mph 81 % 0.00 in
04:49 34.1 °F 28.9 °F 30.27 in SSE 1.5 mph 3.5 mph 81 % 0.00 in
04:54 34.1 °F 28.9 °F 30.26 in SSE 2.3 mph 2.3 mph 81 % 0.00 in
05:00 34.1 °F 29.2 °F 30.27 in Calm     82 % 0.00 in
05:05 34.1 °F 29.2 °F 30.27 in Calm   3.5 mph 82 % 0.00 in
05:10 34.1 °F 29.2 °F 30.27 in SSE 0.3 mph 2.3 mph 82 % 0.00 in
05:15 34.1 °F 29.2 °F 30.26 in Calm     82 % 0.00 in
05:20 34.0 °F 29.1 °F 30.27 in SSE 0.2 mph 1.2 mph 82 % 0.00 in
05:25 33.9 °F 29.0 °F 30.27 in Calm     82 % 0.00 in
05:30 33.9 °F 29.0 °F 30.27 in Calm     82 % 0.00 in
05:35 33.8 °F 29.2 °F 30.28 in Calm     83 % 0.00 in
05:40 33.7 °F 29.1 °F 30.27 in South 2.7 mph 3.5 mph 83 % 0.00 in
05:45 33.5 °F 28.9 °F 30.28 in South 0.8 mph 2.3 mph 83 % 0.00 in
05:50 33.4 °F 29.1 °F 30.28 in Calm     84 % 0.00 in
05:55 33.4 °F 29.4 °F 30.28 in Calm     85 % 0.00 in
06:00 33.3 °F 29.6 °F 30.28 in Calm     86 % 0.00 in
06:05 33.2 °F 29.5 °F 30.28 in Calm     86 % 0.00 in
06:10 33.2 °F 29.8 °F 30.28 in Calm     87 % 0.00 in
06:15 33.1 °F 29.9 °F 30.28 in Calm     88 % 0.00 in
06:20 33.0 °F 29.8 °F 30.28 in Calm     88 % 0.00 in
06:25 32.9 °F 29.7 °F 30.28 in Calm     88 % 0.00 in
06:30 32.7 °F 29.5 °F 30.28 in Calm     88 % 0.00 in
06:35 32.6 °F 29.4 °F 30.28 in Calm     88 % 0.00 in
06:41 32.5 °F 29.6 °F 30.28 in Calm     89 % 0.00 in
06:46 32.3 °F 29.4 °F 30.28 in Calm     89 % 0.00 in
06:51 32.2 °F 29.3 °F 30.28 in Calm     89 % 0.00 in
06:56 32.1 °F 29.2 °F 30.28 in Calm     89 % 0.00 in
07:01 32.0 °F 29.1 °F 30.28 in Calm     89 % 0.00 in
07:06 31.9 °F 29.0 °F 30.28 in Calm     89 % 0.00 in
07:11 31.8 °F 28.9 °F 30.28 in Calm     89 % 0.00 in
07:16 31.8 °F 28.9 °F 30.28 in Calm     89 % 0.00 in
07:21 31.8 °F 28.9 °F 30.28 in Calm     89 % 0.00 in
07:26 31.9 °F 29.3 °F 30.28 in Calm     90 % 0.00 in
07:31 31.9 °F 29.3 °F 30.28 in Calm     90 % 0.00 in
07:36 32.0 °F 29.4 °F 30.28 in Calm     90 % 0.00 in
07:41 32.0 °F 29.4 °F 30.29 in Calm     90 % 0.00 in
07:46 32.0 °F 29.4 °F 30.29 in Calm     90 % 0.00 in
07:51 32.1 °F 29.5 °F 30.29 in Calm     90 % 0.00 in
07:56 32.3 °F 30.0 °F 30.28 in Calm     91 % 0.00 in
08:01 32.3 °F 30.0 °F 30.28 in Calm     91 % 0.00 in
08:06 32.5 °F 30.2 °F 30.28 in Calm     91 % 0.00 in
08:11 33.0 °F 30.9 °F 30.28 in Calm     92 % 0.00 in
08:16 33.5 °F 31.7 °F 30.28 in Calm     93 % 0.00 in
08:21 34.1 °F 32.3 °F 30.28 in Calm     93 % 0.00 in
08:26 34.9 °F 33.3 °F 30.28 in Calm     94 % 0.00 in
08:31 35.6 °F 34.0 °F 30.29 in Calm     94 % 0.00 in
08:36 36.3 °F 34.7 °F 30.29 in Calm     94 % 0.00 in
08:42 37.0 °F 35.4 °F 30.29 in South 0.5 mph 1.0 mph 94 % 0.00 in
08:47 37.7 °F 36.1 °F 30.29 in ENE 2.2 mph 3.5 mph 94 % 0.00 in
08:52 38.4 °F 36.6 °F 30.29 in ENE 0.7 mph 1.2 mph 93 % 0.00 in
08:57 39.1 °F 37.2 °F 30.29 in ENE 0.1 mph 1.2 mph 93 % 0.00 in
09:02 39.9 °F 37.8 °F 30.29 in ENE 0.1 mph 2.3 mph 92 % 0.00 in
09:07 40.6 °F 37.9 °F 30.28 in ENE 0.5 mph 2.0 mph 90 % 0.00 in
09:12 41.3 °F 38.0 °F 30.28 in Calm     88 % 0.00 in
09:17 41.9 °F 38.3 °F 30.27 in ENE 0.5 mph 2.0 mph 87 % 0.00 in
09:22 42.7 °F 38.8 °F 30.26 in South 2.3 mph 5.8 mph 86 % 0.00 in
09:27 44.0 °F 38.5 °F 30.27 in South 7.8 mph 11.5 mph 81 % 0.00 in
09:32 44.9 °F 38.8 °F 30.28 in SSE 2.1 mph 6.0 mph 79 % 0.00 in
09:37 45.7 °F 38.9 °F 30.27 in SW 4.7 mph 7.0 mph 77 % 0.00 in
09:42 46.4 °F 39.2 °F 30.27 in SW 3.2 mph 8.1 mph 76 % 0.00 in
09:47 47.1 °F 39.2 °F 30.27 in SSW 5.4 mph 9.2 mph 74 % 0.00 in
09:52 47.6 °F 39.0 °F 30.27 in SSE 6.2 mph 10.4 mph 72 % 0.00 in
09:58 48.0 °F 39.4 °F 30.26 in SSW 3.3 mph 10.4 mph 72 % 0.00 in
10:03 48.5 °F 39.5 °F 30.26 in SSW 4.3 mph 11.5 mph 71 % 0.00 in
10:08 48.8 °F 39.4 °F 30.26 in SW 6.5 mph 11.5 mph 70 % 0.00 in
10:13 49.0 °F 39.6 °F 30.26 in SSW 8.1 mph 12.7 mph 70 % 0.00 in
10:18 49.2 °F 39.5 °F 30.25 in SSW 5.4 mph 10.4 mph 69 % 0.00 in
10:23 49.6 °F 40.2 °F 30.25 in South 5.8 mph 16.1 mph 70 % 0.00 in
10:28 49.8 °F 40.0 °F 30.25 in SSE 2.1 mph 5.8 mph 69 % 0.00 in
10:33 50.0 °F 40.2 °F 30.26 in SSW 6.2 mph 8.1 mph 69 % 0.00 in
10:38 50.4 °F 40.6 °F 30.26 in SSW 7.6 mph 11.5 mph 69 % 0.00 in
10:43 50.7 °F 40.1 °F 30.26 in SSW 6.1 mph 11.5 mph 67 % 0.00 in
10:48 51.1 °F 41.3 °F 30.25 in South 5.3 mph 12.0 mph 69 % 0.00 in
10:53 51.3 °F 40.7 °F 30.25 in South 6.7 mph 13.8 mph 67 % 0.00 in
10:58 51.7 °F 41.5 °F 30.25 in SW 3.4 mph 9.2 mph 68 % 0.00 in
11:03 52.3 °F 41.7 °F 30.24 in SSW 7.2 mph 10.4 mph 67 % 0.00 in
11:09 52.5 °F 41.5 °F 30.24 in SW 10.7 mph 16.0 mph 66 % 0.00 in
11:14 52.6 °F 41.6 °F 30.24 in SSW 8.2 mph 11.5 mph 66 % 0.00 in
11:19 52.5 °F 41.5 °F 30.23 in South 5.9 mph 10.4 mph 66 % 0.00 in
11:24 51.9 °F 40.9 °F 30.24 in SW 5.7 mph 10.4 mph 66 % 0.00 in
11:29 51.5 °F 40.9 °F 30.24 in WSW 5.8 mph 12.0 mph 67 % 0.00 in
11:34 51.1 °F 40.5 °F 30.23 in South 4.8 mph 10.4 mph 67 % 0.00 in
11:39 50.9 °F 41.1 °F 30.23 in SW 3.5 mph 8.1 mph 69 % 0.00 in
11:44 50.9 °F 41.5 °F 30.23 in SSW 1.0 mph 3.5 mph 70 % 0.00 in
11:49 51.0 °F 41.2 °F 30.23 in South 4.6 mph 6.9 mph 69 % 0.00 in
11:54 51.0 °F 41.6 °F 30.22 in SSW 4.7 mph 9.2 mph 70 % 0.00 in
11:59 51.0 °F 41.6 °F 30.22 in South 3.0 mph 6.9 mph 70 % 0.00 in
12:04 51.0 °F 41.9 °F 30.21 in WSW 5.6 mph 9.2 mph 71 % 0.00 in
12:09 51.0 °F 41.9 °F 30.21 in South 5.8 mph 11.5 mph 71 % 0.00 in
12:14 50.9 °F 41.8 °F 30.21 in South 5.5 mph 8.1 mph 71 % 0.00 in
12:19 50.9 °F 41.8 °F 30.20 in South 4.6 mph 11.5 mph 71 % 0.00 in
12:25 51.0 °F 41.9 °F 30.19 in SSE 5.1 mph 7.0 mph 71 % 0.00 in
12:30 50.9 °F 41.8 °F 30.19 in South 2.7 mph 8.1 mph 71 % 0.00 in
12:35 50.8 °F 41.7 °F 30.18 in SW 7.4 mph 11.5 mph 71 % 0.00 in
12:40 50.7 °F 42.0 °F 30.18 in South 4.2 mph 9.2 mph 72 % 0.00 in
12:45 50.7 °F 42.4 °F 30.18 in South 6.0 mph 10.4 mph 73 % 0.00 in
12:50 50.7 °F 42.4 °F 30.18 in South 4.4 mph 6.9 mph 73 % 0.00 in
12:55 50.7 °F 42.4 °F 30.18 in South 7.2 mph 11.0 mph 73 % 0.00 in
13:00 50.5 °F 42.2 °F 30.18 in SW 4.1 mph 6.9 mph 73 % 0.00 in
13:05 50.5 °F 42.5 °F 30.18 in SSW 5.0 mph 10.4 mph 74 % 0.00 in
13:10 50.4 °F 42.4 °F 30.17 in SSE 1.6 mph 3.5 mph 74 % 0.00 in
13:15 50.4 °F 42.8 °F 30.16 in South 4.8 mph 7.0 mph 75 % 0.00 in
13:20 50.4 °F 42.8 °F 30.16 in WSW 5.1 mph 8.1 mph 75 % 0.00 in
13:25 50.3 °F 43.0 °F 30.16 in South 4.9 mph 8.1 mph 76 % 0.00 in
13:30 50.4 °F 43.1 °F 30.16 in SSW 4.1 mph 6.9 mph 76 % 0.00 in
13:35 50.3 °F 43.0 °F 30.16 in SSE 3.4 mph 4.6 mph 76 % 0.00 in
13:40 50.2 °F 43.3 °F 30.15 in WSW 4.1 mph 6.9 mph 77 % 0.00 in
13:45 50.1 °F 43.2 °F 30.16 in SSW 6.6 mph 11.5 mph 77 % 0.00 in
13:51 50.0 °F 43.1 °F 30.15 in SSW 6.0 mph 14.0 mph 77 % 0.00 in
13:56 49.9 °F 43.3 °F 30.15 in SSW 7.0 mph 13.0 mph 78 % 0.00 in
14:01 49.8 °F 43.2 °F 30.15 in SSW 6.0 mph 11.5 mph 78 % 0.00 in
14:06 49.7 °F 43.5 °F 30.15 in SSW 5.6 mph 8.1 mph 79 % 0.00 in
14:11 49.7 °F 43.5 °F 30.14 in South 5.6 mph 9.2 mph 79 % 0.00 in
14:16 49.7 °F 43.5 °F 30.14 in South 2.4 mph 6.9 mph 79 % 0.00 in
14:26 49.7 °F 43.8 °F 30.14 in WSW 3.2 mph 4.6 mph 80 % 0.00 in
14:31 49.7 °F 43.8 °F 30.15 in South 3.8 mph 7.0 mph 80 % 0.00 in
14:36 49.8 °F 43.9 °F 30.15 in SSW 2.2 mph 3.5 mph 80 % 0.00 in
14:41 49.8 °F 43.9 °F 30.15 in SW 1.1 mph 3.5 mph 80 % 0.00 in
14:46 49.8 °F 43.9 °F 30.15 in WSW 3.2 mph 4.6 mph 80 % 0.00 in
14:51 49.7 °F 44.1 °F 30.14 in South 5.3 mph 12.7 mph 81 % 0.00 in
14:56 49.7 °F 44.1 °F 30.15 in SSW 5.6 mph 10.4 mph 81 % 0.00 in
15:01 49.6 °F 44.0 °F 30.15 in South 3.7 mph 6.9 mph 81 % 0.00 in
15:06 49.6 °F 44.3 °F 30.15 in SW 2.5 mph 9.0 mph 82 % 0.00 in
15:11 49.6 °F 44.3 °F 30.15 in SSE 4.9 mph 10.4 mph 82 % 0.00 in
15:16 49.6 °F 44.3 °F 30.14 in South 3.9 mph 4.6 mph 82 % 0.00 in
15:21 49.6 °F 44.3 °F 30.14 in SW 5.0 mph 11.0 mph 82 % 0.00 in
15:27 49.6 °F 44.6 °F 30.14 in SSW 3.9 mph 8.1 mph 83 % 0.00 in
15:32 49.6 °F 44.3 °F 30.14 in West 2.9 mph 8.1 mph 82 % 0.00 in
15:37 49.6 °F 44.6 °F 30.14 in SSW 1.8 mph 8.0 mph 83 % 0.00 in
15:42 49.5 °F 44.6 °F 30.14 in SW 2.7 mph 8.1 mph 83 % 0.00 in
15:47 49.5 °F 44.6 °F 30.14 in SSW 3.0 mph 5.8 mph 83 % 0.00 in
15:52 49.5 °F 44.6 °F 30.14 in SW 0.9 mph 3.5 mph 83 % 0.00 in
15:57 49.4 °F 44.8 °F 30.14 in SSW 4.6 mph 7.0 mph 84 % 0.00 in
16:02 49.3 °F 44.7 °F 30.14 in SSW 3.5 mph 8.0 mph 84 % 0.00 in
16:07 49.2 °F 44.6 °F 30.14 in SSW 3.4 mph 4.6 mph 84 % 0.00 in
16:12 49.2 °F 44.6 °F 30.14 in SW 0.8 mph 8.1 mph 84 % 0.00 in
16:17 49.2 °F 44.9 °F 30.13 in SSW 4.0 mph 10.4 mph 85 % 0.00 in
16:22 49.1 °F 44.8 °F 30.14 in SSW 3.2 mph 6.9 mph 85 % 0.00 in
16:27 49.0 °F 44.7 °F 30.13 in SW 4.3 mph 6.0 mph 85 % 0.00 in
16:32 48.9 °F 44.9 °F 30.13 in WSW 3.2 mph 6.0 mph 86 % 0.00 in
16:37 48.9 °F 44.9 °F 30.12 in South 4.7 mph 6.0 mph 86 % 0.00 in
16:42 48.8 °F 45.1 °F 30.12 in SSW 2.9 mph 6.9 mph 87 % 0.00 in
16:47 48.7 °F 45.3 °F 30.12 in SSW 1.1 mph 4.0 mph 88 % 0.00 in
16:53 48.6 °F 45.2 °F 30.11 in SSW 2.9 mph 4.0 mph 88 % 0.00 in
16:58 48.6 °F 45.2 °F 30.11 in SW 0.9 mph 5.8 mph 88 % 0.00 in
17:03 48.5 °F 45.4 °F 30.12 in SSW 3.1 mph 6.9 mph 89 % 0.00 in
17:08 48.5 °F 45.4 °F 30.10 in South 2.4 mph 4.6 mph 89 % 0.00 in
17:13 48.5 °F 45.4 °F 30.10 in SSE 2.2 mph 8.0 mph 89 % 0.00 in
17:18 48.4 °F 45.3 °F 30.11 in SSW 1.3 mph 5.8 mph 89 % 0.00 in
17:23 48.3 °F 45.5 °F 30.11 in South 3.8 mph 6.9 mph 90 % 0.00 in
17:28 48.3 °F 45.5 °F 30.11 in South 2.9 mph 5.8 mph 90 % 0.00 in
17:33 48.3 °F 45.5 °F 30.11 in South 3.8 mph 8.1 mph 90 % 0.00 in
17:38 48.2 °F 45.4 °F 30.11 in SSW 2.9 mph 3.5 mph 90 % 0.00 in
17:43 48.2 °F 45.4 °F 30.11 in SW 4.9 mph 11.5 mph 90 % 0.00 in
17:48 48.2 °F 45.7 °F 30.11 in SSW 4.7 mph 6.9 mph 91 % 0.00 in
17:53 48.2 °F 45.7 °F 30.11 in SSW 1.8 mph 6.0 mph 91 % 0.00 in
17:58 48.2 °F 45.7 °F 30.11 in South 3.9 mph 5.8 mph 91 % 0.00 in
18:03 48.2 °F 46.0 °F 30.11 in SSW 4.2 mph 5.8 mph 92 % 0.00 in
18:08 48.2 °F 46.0 °F 30.11 in SSW 3.7 mph 5.8 mph 92 % 0.00 in
18:13 48.1 °F 45.9 °F 30.12 in SSW 1.6 mph 4.0 mph 92 % 0.00 in
18:18 48.1 °F 45.9 °F 30.11 in SSW 6.6 mph 9.0 mph 92 % 0.00 in
18:23 48.0 °F 45.8 °F 30.11 in SW 4.5 mph 8.1 mph 92 % 0.00 in
18:28 48.0 °F 46.1 °F 30.11 in SSW 2.3 mph 4.6 mph 93 % 0.00 in
18:33 48.0 °F 46.1 °F 30.10 in SSW 3.6 mph 4.6 mph 93 % 0.00 in
18:39 48.0 °F 46.1 °F 30.10 in SSW 1.8 mph 3.5 mph 93 % 0.00 in
18:44 48.0 °F 46.1 °F 30.10 in SW 3.4 mph 6.9 mph 93 % 0.00 in
18:49 48.0 °F 46.1 °F 30.10 in SW 2.8 mph 6.9 mph 93 % 0.00 in
18:54 48.1 °F 46.2 °F 30.09 in SSW 6.0 mph 9.2 mph 93 % 0.00 in
18:59 48.1 °F 46.2 °F 30.10 in SSW 4.8 mph 6.9 mph 93 % 0.00 in
19:04 48.1 °F 46.2 °F 30.10 in SSE 5.3 mph 11.5 mph 93 % 0.00 in
19:09 48.2 °F 46.6 °F 30.10 in South 2.9 mph 5.8 mph 94 % 0.00 in
19:14 48.2 °F 46.6 °F 30.09 in SSW 0.9 mph 3.5 mph 94 % 0.00 in
19:19 48.2 °F 46.6 °F 30.09 in SW 3.2 mph 5.8 mph 94 % 0.00 in
19:24 48.3 °F 46.7 °F 30.09 in SSE 2.4 mph 5.8 mph 94 % 0.00 in
19:29 48.3 °F 46.7 °F 30.09 in SSW 3.6 mph 6.9 mph 94 % 0.00 in
19:34 48.4 °F 46.8 °F 30.09 in SW 3.4 mph 5.8 mph 94 % 0.00 in
19:39 48.5 °F 46.9 °F 30.09 in SSW 4.7 mph 8.0 mph 94 % 0.00 in
19:44 48.6 °F 47.0 °F 30.09 in SSW 3.5 mph 12.0 mph 94 % 0.00 in
19:49 48.7 °F 47.3 °F 30.09 in South 3.0 mph 10.0 mph 95 % 0.00 in
19:54 48.7 °F 47.3 °F 30.09 in SSW 5.1 mph 6.9 mph 95 % 0.00 in
19:59 48.8 °F 47.4 °F 30.09 in South 5.3 mph 8.0 mph 95 % 0.00 in
20:04 48.9 °F 47.5 °F 30.10 in SW 6.1 mph 8.1 mph 95 % 0.00 in
20:09 49.0 °F 47.6 °F 30.10 in SW 6.9 mph 12.0 mph 95 % 0.00 in
20:14 49.0 °F 47.6 °F 30.10 in SW 3.8 mph 6.9 mph 95 % 0.00 in
20:20 49.1 °F 47.7 °F 30.10 in SW 2.8 mph 12.7 mph 95 % 0.00 in
20:25 49.2 °F 47.8 °F 30.10 in SSW 6.0 mph 11.5 mph 95 % 0.00 in
20:30 49.2 °F 47.8 °F 30.10 in SSW 4.5 mph 7.0 mph 95 % 0.00 in
20:35 49.3 °F 47.9 °F 30.10 in SW 5.1 mph 9.2 mph 95 % 0.00 in
20:40 49.3 °F 48.2 °F 30.11 in South 3.2 mph 8.0 mph 96 % 0.00 in
20:45 49.3 °F 47.9 °F 30.10 in SW 3.1 mph 4.6 mph 95 % 0.00 in
20:50 49.3 °F 47.9 °F 30.10 in SW 5.2 mph 6.9 mph 95 % 0.00 in
20:55 49.4 °F 48.3 °F 30.11 in WSW 4.6 mph 11.5 mph 96 % 0.00 in
21:00 49.4 °F 48.3 °F 30.10 in South 3.0 mph 7.0 mph 96 % 0.00 in
21:05 49.4 °F 48.3 °F 30.10 in South 3.5 mph 5.8 mph 96 % 0.00 in
21:10 49.4 °F 48.3 °F 30.09 in SW 2.5 mph 4.6 mph 96 % 0.00 in
21:15 49.4 °F 48.3 °F 30.10 in SW 2.4 mph 3.5 mph 96 % 0.00 in
21:20 49.4 °F 48.3 °F 30.10 in SSW 2.8 mph 4.6 mph 96 % 0.00 in
21:25 49.5 °F 48.4 °F 30.09 in SW 3.0 mph 4.6 mph 96 % 0.00 in
21:30 49.5 °F 48.4 °F 30.09 in SSW 5.5 mph 6.9 mph 96 % 0.00 in
21:35 49.6 °F 48.5 °F 30.09 in SSW 2.1 mph 8.1 mph 96 % 0.00 in
21:40 49.6 °F 48.5 °F 30.09 in SSW 3.0 mph 8.0 mph 96 % 0.00 in
21:45 49.6 °F 48.5 °F 30.08 in SSW 4.1 mph 6.0 mph 96 % 0.00 in
21:50 49.6 °F 48.5 °F 30.08 in SW 2.0 mph 6.0 mph 96 % 0.00 in
21:55 49.6 °F 48.5 °F 30.08 in SSW 1.0 mph 8.0 mph 96 % 0.00 in
22:00 49.6 °F 48.5 °F 30.08 in SSW 3.4 mph 3.5 mph 96 % 0.00 in
22:05 49.6 °F 48.5 °F 30.07 in SSW 3.3 mph 6.9 mph 96 % 0.00 in
22:10 49.6 °F 48.5 °F 30.07 in South 2.6 mph 5.8 mph 96 % 0.00 in
22:15 49.7 °F 48.6 °F 30.07 in SSW 5.0 mph 8.0 mph 96 % 0.00 in
22:21 49.8 °F 48.7 °F 30.07 in SSW 6.0 mph 14.0 mph 96 % 0.00 in
22:26 49.9 °F 49.1 °F 30.08 in SSW 2.0 mph 10.0 mph 97 % 0.00 in
22:31 50.0 °F 49.2 °F 30.08 in SW 5.0 mph 9.0 mph 97 % 0.00 in
22:36 50.1 °F 49.3 °F 30.08 in SW 3.0 mph 6.0 mph 97 % 0.00 in
22:41 50.2 °F 49.4 °F 30.08 in SW 3.0 mph 10.0 mph 97 % 0.00 in
22:46 50.3 °F 49.4 °F 30.08 in SW 2.0 mph 8.0 mph 97 % 0.00 in
22:51 50.3 °F 49.5 °F 30.08 in SW 3.0 mph 7.0 mph 97 % 0.00 in
22:56 50.3 °F 49.5 °F 30.08 in SW 3.0 mph 6.0 mph 97 % 0.00 in
23:01 50.4 °F 49.6 °F 30.08 in SSW 2.4 mph 4.6 mph 97 % 0.00 in
23:06 50.4 °F 49.6 °F 30.08 in SW 3.0 mph 8.0 mph 97 % 0.00 in
23:11 50.5 °F 49.7 °F 30.08 in SW 2.0 mph 10.0 mph 97 % 0.00 in
23:16 50.4 °F 49.6 °F 30.08 in SW 3.0 mph 6.0 mph 97 % 0.00 in
23:21 50.4 °F 49.6 °F 30.08 in SSW 2.0 mph 8.0 mph 97 % 0.00 in
23:26 50.4 °F 49.6 °F 30.08 in SW 2.0 mph 5.0 mph 97 % 0.00 in
23:31 50.3 °F 49.5 °F 30.08 in SW 2.0 mph 8.0 mph 97 % 0.00 in
23:36 50.3 °F 49.5 °F 30.07 in SW 1.0 mph 4.0 mph 97 % 0.00 in
23:41 50.2 °F 49.4 °F 30.07 in SW 2.0 mph 4.0 mph 97 % 0.00 in
23:46 50.1 °F 49.3 °F 30.06 in SSW 2.0 mph 9.0 mph 97 % 0.00 in
23:51 50.1 °F 49.3 °F 30.05 in SSW 2.0 mph 4.0 mph 97 % 0.00 in
23:56 50.0 °F 48.9 °F 30.05 in SSW 2.0 mph 7.0 mph 96 % 0.00 in
Crab Meadow Weather
Compliments of Weather Underground - 3 mb

Script developed by  Jim McMurry - jmcmurry@mwt.net Adapted for the template by  Wim van der Kuil - Leuven-Template.eu

Recycling: The U.S. is the #1 trash-producing country in the world at 1,609 pounds per person per year. This means that 5% of the world's people generate 40% of the world's waste.